»·PEaware :: N652MA KSBA-KBUR

N652MA :: KSBA-KBUR

FLIGHT INFORMATION

Flight Status: Arrived
Operator: Privately registered:
United States
More flights under this callsign
Pilot: Martin K. (14811)
Aircraft: CESSNA 172 SKYHAWK
(C172)
More flights by this aircraft type
Origin: KSBA Santa Barbara Mun
United States
Destination: KBUR Bob Hope-Burbank
United States
More flights between these airports :: More routes between these airports
Route: +
File this flight plan on PilotEdge
Remarks: CAT8
Altitude:
(Current/Filed)
0ft
Speed:
(Current/Filed)
0kts
Departed: 30-Dec-17 09:35 PM
Arrived: 30-Dec-17 10:26 PM
Distance/Time
Traveled:
75nm/0:50
Distance/Time
To Go:
Arrived

Flight Plot

Page will automatically refresh every two minutes.


Map Options




Map Legend


Flown Route
Filed Route
Departure Airport
Arrival Airport
Navaid (VOR, NDB)
Fix

Horizontal Profiles

Position Reports

Time Latitude Longitude Heading Altitude Ground
Speed
30-Dec-17 21:30 34.425801 -119.836723 188 9ft 0kts
30-Dec-17 21:31 34.425801 -119.836723 188 9ft 0kts
30-Dec-17 21:32 34.425425 -119.837710 174 9ft 6kts
30-Dec-17 21:33 34.425006 -119.837602 170 9ft 0kts
30-Dec-17 21:34 34.425006 -119.837602 170 9ft 0kts
30-Dec-17 21:35 34.424835 -119.837743 226 9ft 1kts
30-Dec-17 21:36 34.426039 -119.838154 342 9ft 10kts
30-Dec-17 21:37 34.427238 -119.838528 343 10ft 4kts
30-Dec-17 21:38 34.429536 -119.839222 346 10ft 11kts
30-Dec-17 21:39 34.430649 -119.839718 269 11ft 0kts
30-Dec-17 21:40 34.430154 -119.840184 167 9ft 20kts
30-Dec-17 21:41 34.410067 -119.835471 176 564ft 81kts
30-Dec-17 21:42 34.387620 -119.835660 181 1347ft 85kts
30-Dec-17 21:43 34.364253 -119.835090 174 2132ft 85kts
30-Dec-17 21:44 34.341146 -119.830858 142 2887ft 85kts
30-Dec-17 21:45 34.346105 -119.806306 57 3605ft 85kts
30-Dec-17 21:46 34.358620 -119.780901 63 4071ft 98kts
30-Dec-17 21:47 34.370232 -119.749658 68 4324ft 112kts
30-Dec-17 21:48 34.381207 -119.710975 73 4053ft 127kts
30-Dec-17 21:49 34.388353 -119.671464 83 3704ft 115kts
30-Dec-17 21:50 34.387429 -119.634490 98 3834ft 111kts
30-Dec-17 21:51 34.380407 -119.598513 109 4124ft 107kts
30-Dec-17 21:52 34.367576 -119.564985 120 4149ft 112kts
30-Dec-17 21:53 34.356445 -119.530215 107 3998ft 112kts
30-Dec-17 21:54 34.344586 -119.496011 113 3896ft 112kts
30-Dec-17 21:55 34.321458 -119.482078 180 3886ft 106kts
30-Dec-17 21:56 34.307329 -119.458562 92 3870ft 106kts
30-Dec-17 21:57 34.297120 -119.427223 124 3888ft 105kts
30-Dec-17 21:58 34.290652 -119.392881 96 3800ft 114kts
30-Dec-17 21:59 34.286110 -119.356477 103 3769ft 109kts
30-Dec-17 22:00 34.280413 -119.321121 96 3718ft 110kts
30-Dec-17 22:01 34.275956 -119.286064 95 3710ft 110kts
30-Dec-17 22:02 34.274029 -119.257779 94 3712ft 110kts
30-Dec-17 22:03 34.269653 -119.218449 100 3714ft 111kts
30-Dec-17 22:04 34.263377 -119.185888 105 3716ft 113kts
30-Dec-17 22:05 34.256178 -119.158482 109 3717ft 113kts
30-Dec-17 22:06 34.245249 -119.126066 114 3720ft 115kts
30-Dec-17 22:07 34.233882 -119.086471 97 3787ft 113kts
30-Dec-17 22:08 34.232436 -119.055971 86 3840ft 114kts
30-Dec-17 22:09 34.236549 -119.019574 80 3878ft 114kts
30-Dec-17 22:10 34.239685 -118.983350 88 3877ft 114kts
30-Dec-17 22:11 34.232859 -118.939954 113 3876ft 114kts
30-Dec-17 22:12 34.220808 -118.911799 115 3877ft 114kts
30-Dec-17 22:13 34.211081 -118.877983 99 3872ft 114kts
30-Dec-17 22:14 34.206522 -118.840168 105 3870ft 114kts
30-Dec-17 22:15 34.199579 -118.803032 101 3871ft 114kts
30-Dec-17 22:16 34.193797 -118.765697 99 3869ft 114kts
30-Dec-17 22:17 34.183688 -118.729784 108 3860ft 115kts
30-Dec-17 22:18 34.181257 -118.692633 83 3861ft 114kts
30-Dec-17 22:19 34.182683 -118.657760 90 3862ft 114kts
30-Dec-17 22:20 34.181749 -118.623561 92 3862ft 114kts
30-Dec-17 22:21 34.180459 -118.589853 92 3862ft 114kts
30-Dec-17 22:22 34.178514 -118.555697 118 3827ft 117kts
30-Dec-17 22:23 34.153485 -118.537286 121 3876ft 101kts
30-Dec-17 22:24 34.142927 -118.506057 95 3864ft 109kts
30-Dec-17 22:25 34.138864 -118.473753 72 3739ft 116kts
30-Dec-17 22:26 34.153124 -118.450227 46 3488ft 113kts
30-Dec-17 22:27 34.170901 -118.432418 35 3132ft 113kts
30-Dec-17 22:28 34.189854 -118.417233 35 2508ft 99kts
30-Dec-17 22:29 34.198256 -118.400676 81 1931ft 83kts
30-Dec-17 22:30 34.198276 -118.380912 92 1282ft 73kts
30-Dec-17 22:31 34.197802 -118.362841 88 727ft 52kts
30-Dec-17 22:32 34.198479 -118.357963 358 715ft 0kts
30-Dec-17 22:33 34.198963 -118.357980 0 717ft 6kts
30-Dec-17 22:34 34.199587 -118.358470 294 720ft 0kts
30-Dec-17 22:35 34.199587 -118.358470 294 720ft 0kts

Navigation Log

Ident Type
1. KSBA Airport
2. KBUR Airport